sensor_id;sensor_type;location;lat;lon;timestamp;pressure;altitude;pressure_sealevel;temperature;humidity
5691;BME280;2870;42.680;23.364;2023-03-13T00:01:49;95358.44;;;2.98;59.14
5691;BME280;2870;42.680;23.364;2023-03-13T00:04:16;95364.00;;;3.03;59.83
5691;BME280;2870;42.680;23.364;2023-03-13T00:06:43;95358.19;;;3.24;59.25
5691;BME280;2870;42.680;23.364;2023-03-13T00:09:13;95361.72;;;3.30;58.82
5691;BME280;2870;42.680;23.364;2023-03-13T00:11:41;95364.22;;;3.22;57.35
5691;BME280;2870;42.680;23.364;2023-03-13T00:14:08;95363.75;;;3.01;58.79
5691;BME280;2870;42.680;23.364;2023-03-13T00:16:35;95366.00;;;2.97;58.91
5691;BME280;2870;42.680;23.364;2023-03-13T00:19:04;95359.44;;;2.83;58.20
5691;BME280;2870;42.680;23.364;2023-03-13T00:21:31;95371.03;;;2.87;58.94
5691;BME280;2870;42.680;23.364;2023-03-13T00:23:59;95373.28;;;2.89;61.34
5691;BME280;2870;42.680;23.364;2023-03-13T00:26:27;95372.53;;;3.00;59.36
5691;BME280;2870;42.680;23.364;2023-03-13T00:28:55;95377.09;;;3.14;59.60
5691;BME280;2870;42.680;23.364;2023-03-13T00:31:22;95383.13;;;2.90;58.95
5691;BME280;2870;42.680;23.364;2023-03-13T00:33:51;95376.81;;;3.17;59.61
5691;BME280;2870;42.680;23.364;2023-03-13T00:36:20;95372.31;;;2.92;59.13
5691;BME280;2870;42.680;23.364;2023-03-13T00:38:47;95380.38;;;2.90;60.39
5691;BME280;2870;42.680;23.364;2023-03-13T00:41:16;95380.09;;;3.44;58.81
5691;BME280;2870;42.680;23.364;2023-03-13T00:43:46;95341.31;;;2.99;58.75
5691;BME280;2870;42.680;23.364;2023-03-13T00:46:14;95374.84;;;3.01;60.55
5691;BME280;2870;42.680;23.364;2023-03-13T00:48:41;95378.84;;;3.23;59.32
5691;BME280;2870;42.680;23.364;2023-03-13T00:51:09;95372.06;;;2.90;59.54
5691;BME280;2870;42.680;23.364;2023-03-13T00:53:36;95365.25;;;2.91;60.83
5691;BME280;2870;42.680;23.364;2023-03-13T00:56:05;95367.50;;;2.70;59.38
5691;BME280;2870;42.680;23.364;2023-03-13T00:58:34;95371.31;;;2.84;60.62
5691;BME280;2870;42.680;23.364;2023-03-13T01:01:11;95363.97;;;2.75;60.81
5691;BME280;2870;42.680;23.364;2023-03-13T01:03:39;95370.03;;;2.79;60.15
5691;BME280;2870;42.680;23.364;2023-03-13T01:06:08;95369.25;;;2.68;60.28
5691;BME280;2870;42.680;23.364;2023-03-13T01:08:35;95364.19;;;2.55;60.13
5691;BME280;2870;42.680;23.364;2023-03-13T01:11:03;95375.75;;;2.42;60.12
5691;BME280;2870;42.680;23.364;2023-03-13T01:13:31;95370.72;;;2.46;60.20
5691;BME280;2870;42.680;23.364;2023-03-13T01:16:01;95375.25;;;2.49;60.12
5691;BME280;2870;42.680;23.364;2023-03-13T01:18:30;95378.28;;;2.46;59.63
5691;BME280;2870;42.680;23.364;2023-03-13T01:20:57;95370.50;;;2.50;62.02
5691;BME280;2870;42.680;23.364;2023-03-13T01:23:24;95368.97;;;2.60;61.86
5691;BME280;2870;42.680;23.364;2023-03-13T01:25:51;95365.22;;;2.69;60.89
5691;BME280;2870;42.680;23.364;2023-03-13T01:28:17;95375.78;;;2.64;61.39
5691;BME280;2870;42.680;23.364;2023-03-13T01:30:44;95368.53;;;2.95;60.37
5691;BME280;2870;42.680;23.364;2023-03-13T01:33:11;95377.06;;;2.75;60.82
5691;BME280;2870;42.680;23.364;2023-03-13T01:35:39;95391.94;;;2.83;61.22
5691;BME280;2870;42.680;23.364;2023-03-13T01:38:06;95380.59;;;2.86;59.88
5691;BME280;2870;42.680;23.364;2023-03-13T01:40:38;95378.09;;;2.88;60.21
5691;BME280;2870;42.680;23.364;2023-03-13T01:43:16;95390.91;;;2.75;60.20
5691;BME280;2870;42.680;23.364;2023-03-13T01:46:10;95395.66;;;2.52;61.63
5691;BME280;2870;42.680;23.364;2023-03-13T01:48:42;95399.72;;;2.62;61.50
5691;BME280;2870;42.680;23.364;2023-03-13T01:51:13;95389.09;;;2.49;61.65
5691;BME280;2870;42.680;23.364;2023-03-13T01:53:44;95392.88;;;2.46;61.90
5691;BME280;2870;42.680;23.364;2023-03-13T01:56:17;95400.97;;;2.50;61.63
5691;BME280;2870;42.680;23.364;2023-03-13T01:58:45;95388.88;;;2.58;61.10
5691;BME280;2870;42.680;23.364;2023-03-13T02:01:14;95397.63;;;2.29;62.10
5691;BME280;2870;42.680;23.364;2023-03-13T02:03:41;95398.44;;;1.86;64.35
5691;BME280;2870;42.680;23.364;2023-03-13T02:06:09;95392.47;;;1.51;66.07
5691;BME280;2870;42.680;23.364;2023-03-13T02:08:41;95399.47;;;1.46;66.87
5691;BME280;2870;42.680;23.364;2023-03-13T02:11:18;95404.28;;;1.14;68.03
5691;BME280;2870;42.680;23.364;2023-03-13T02:13:49;95407.63;;;0.92;69.24
5691;BME280;2870;42.680;23.364;2023-03-13T02:16:16;95400.28;;;0.89;69.67
5691;BME280;2870;42.680;23.364;2023-03-13T02:18:43;95402.84;;;0.93;70.83
5691;BME280;2870;42.680;23.364;2023-03-13T02:21:14;95408.00;;;1.11;71.46
5691;BME280;2870;42.680;23.364;2023-03-13T02:23:50;95410.31;;;1.18;70.88
5691;BME280;2870;42.680;23.364;2023-03-13T02:26:21;95412.44;;;0.97;70.56
5691;BME280;2870;42.680;23.364;2023-03-13T02:28:47;95419.38;;;0.87;71.29
5691;BME280;2870;42.680;23.364;2023-03-13T02:31:14;95414.50;;;1.02;71.80
5691;BME280;2870;42.680;23.364;2023-03-13T02:33:42;95428.81;;;1.06;72.52
5691;BME280;2870;42.680;23.364;2023-03-13T02:36:10;95421.34;;;1.13;72.25
5691;BME280;2870;42.680;23.364;2023-03-13T02:38:41;95428.47;;;1.25;72.40
5691;BME280;2870;42.680;23.364;2023-03-13T02:41:12;95442.19;;;1.45;71.51
5691;BME280;2870;42.680;23.364;2023-03-13T02:43:40;95446.56;;;1.26;71.88
5691;BME280;2870;42.680;23.364;2023-03-13T02:46:09;95454.06;;;1.20;73.18
5691;BME280;2870;42.680;23.364;2023-03-13T02:48:38;95451.56;;;1.22;73.17
5691;BME280;2870;42.680;23.364;2023-03-13T02:51:10;95460.81;;;1.19;73.29
5691;BME280;2870;42.680;23.364;2023-03-13T02:53:40;95464.03;;;1.12;73.57
5691;BME280;2870;42.680;23.364;2023-03-13T02:56:07;95454.78;;;1.15;73.87
5691;BME280;2870;42.680;23.364;2023-03-13T02:58:40;95463.41;;;1.28;72.73
5691;BME280;2870;42.680;23.364;2023-03-13T03:04:20;95454.94;;;1.05;72.46
5691;BME280;2870;42.680;23.364;2023-03-13T03:06:47;95461.56;;;0.88;74.28
5691;BME280;2870;42.680;23.364;2023-03-13T03:09:15;95458.75;;;0.82;75.22
5691;BME280;2870;42.680;23.364;2023-03-13T03:11:42;95454.72;;;1.09;73.44
5691;BME280;2870;42.680;23.364;2023-03-13T03:14:11;95457.00;;;1.11;73.48
5691;BME280;2870;42.680;23.364;2023-03-13T03:16:39;95460.69;;;0.76;73.67
5691;BME280;2870;42.680;23.364;2023-03-13T03:19:06;95474.00;;;1.03;73.44
5691;BME280;2870;42.680;23.364;2023-03-13T03:21:34;95476.16;;;1.20;71.46
5691;BME280;2870;42.680;23.364;2023-03-13T03:24:00;95479.00;;;0.99;72.60
5691;BME280;2870;42.680;23.364;2023-03-13T03:26:27;95490.38;;;0.81;73.31
5691;BME280;2870;42.680;23.364;2023-03-13T03:28:54;95498.38;;;1.05;72.19
5691;BME280;2870;42.680;23.364;2023-03-13T03:31:22;95507.25;;;0.89;73.13
5691;BME280;2870;42.680;23.364;2023-03-13T03:33:50;95499.59;;;0.78;72.97
5691;BME280;2870;42.680;23.364;2023-03-13T03:36:18;95502.25;;;0.67;73.09
5691;BME280;2870;42.680;23.364;2023-03-13T03:38:46;95501.72;;;0.63;74.14
5691;BME280;2870;42.680;23.364;2023-03-13T03:41:13;95506.00;;;0.64;73.30
5691;BME280;2870;42.680;23.364;2023-03-13T03:43:40;95506.25;;;0.66;73.27
5691;BME280;2870;42.680;23.364;2023-03-13T03:46:08;95519.63;;;0.73;73.26
5691;BME280;2870;42.680;23.364;2023-03-13T03:48:36;95526.41;;;0.72;74.45
5691;BME280;2870;42.680;23.364;2023-03-13T03:51:04;95534.50;;;0.75;74.36
5691;BME280;2870;42.680;23.364;2023-03-13T03:53:30;95532.59;;;0.87;74.00
5691;BME280;2870;42.680;23.364;2023-03-13T03:55:58;95534.06;;;0.83;73.61
5691;BME280;2870;42.680;23.364;2023-03-13T03:58:25;95527.72;;;0.76;73.33
5691;BME280;2870;42.680;23.364;2023-03-13T04:00:51;95538.97;;;0.73;73.88
5691;BME280;2870;42.680;23.364;2023-03-13T04:03:18;95540.19;;;0.92;73.53
5691;BME280;2870;42.680;23.364;2023-03-13T04:05:46;95543.91;;;0.89;73.64
5691;BME280;2870;42.680;23.364;2023-03-13T04:08:13;95543.66;;;0.87;73.67
5691;BME280;2870;42.680;23.364;2023-03-13T04:10:40;95540.19;;;0.92;73.32
5691;BME280;2870;42.680;23.364;2023-03-13T04:13:08;95553.63;;;1.05;73.46
5691;BME280;2870;42.680;23.364;2023-03-13T04:15:37;95560.91;;;1.02;72.79
5691;BME280;2870;42.680;23.364;2023-03-13T04:18:03;95554.34;;;1.00;72.82
5691;BME280;2870;42.680;23.364;2023-03-13T04:20:31;95566.19;;;0.80;73.04
5691;BME280;2870;42.680;23.364;2023-03-13T04:22:59;95567.94;;;0.83;73.80
5691;BME280;2870;42.680;23.364;2023-03-13T04:25:26;95567.53;;;0.90;74.29
5691;BME280;2870;42.680;23.364;2023-03-13T04:27:53;95569.47;;;0.84;74.18
5691;BME280;2870;42.680;23.364;2023-03-13T04:30:20;95572.09;;;0.73;73.70
5691;BME280;2870;42.680;23.364;2023-03-13T04:32:47;95572.53;;;0.66;74.32
5691;BME280;2870;42.680;23.364;2023-03-13T04:35:15;95581.91;;;0.74;75.08
5691;BME280;2870;42.680;23.364;2023-03-13T04:37:42;95583.06;;;0.88;74.66
5691;BME280;2870;42.680;23.364;2023-03-13T04:40:11;95590.38;;;0.91;74.28
5691;BME280;2870;42.680;23.364;2023-03-13T04:42:38;95596.63;;;0.86;74.14
5691;BME280;2870;42.680;23.364;2023-03-13T04:45:06;95597.56;;;0.83;74.75
5691;BME280;2870;42.680;23.364;2023-03-13T04:47:34;95604.63;;;0.84;74.46
5691;BME280;2870;42.680;23.364;2023-03-13T04:50:01;95596.31;;;0.84;74.21
5691;BME280;2870;42.680;23.364;2023-03-13T04:52:28;95607.09;;;0.82;74.20
5691;BME280;2870;42.680;23.364;2023-03-13T04:54:54;95612.06;;;0.77;74.48
5691;BME280;2870;42.680;23.364;2023-03-13T04:57:23;95613.53;;;0.93;74.61
5691;BME280;2870;42.680;23.364;2023-03-13T04:59:49;95605.84;;;1.03;73.44
5691;BME280;2870;42.680;23.364;2023-03-13T05:02:16;95605.38;;;0.84;74.52
5691;BME280;2870;42.680;23.364;2023-03-13T05:04:43;95613.81;;;0.75;74.87
5691;BME280;2870;42.680;23.364;2023-03-13T05:07:10;95613.81;;;0.75;74.68
5691;BME280;2870;42.680;23.364;2023-03-13T05:09:36;95616.97;;;0.88;74.62
5691;BME280;2870;42.680;23.364;2023-03-13T05:12:03;95615.47;;;0.87;74.16
5691;BME280;2870;42.680;23.364;2023-03-13T05:14:32;95615.19;;;0.85;74.29
5691;BME280;2870;42.680;23.364;2023-03-13T05:16:59;95617.66;;;0.83;74.33
5691;BME280;2870;42.680;23.364;2023-03-13T05:19:26;95629.00;;;0.85;74.29
5691;BME280;2870;42.680;23.364;2023-03-13T05:21:53;95630.44;;;1.01;73.79
5691;BME280;2870;42.680;23.364;2023-03-13T05:24:20;95638.91;;;1.18;72.67
5691;BME280;2870;42.680;23.364;2023-03-13T05:26:47;95644.66;;;1.14;72.41
5691;BME280;2870;42.680;23.364;2023-03-13T05:29:13;95639.53;;;1.07;73.46
5691;BME280;2870;42.680;23.364;2023-03-13T05:31:42;95640.59;;;1.10;73.30
5691;BME280;2870;42.680;23.364;2023-03-13T05:34:08;95640.22;;;1.02;72.37
5691;BME280;2870;42.680;23.364;2023-03-13T05:36:35;95652.41;;;1.30;71.89
5691;BME280;2870;42.680;23.364;2023-03-13T05:39:02;95653.31;;;1.74;70.22
5691;BME280;2870;42.680;23.364;2023-03-13T05:41:29;95647.25;;;1.70;69.94
5691;BME280;2870;42.680;23.364;2023-03-13T05:43:56;95649.00;;;1.21;69.57
5691;BME280;2870;42.680;23.364;2023-03-13T05:46:23;95657.25;;;1.15;70.00
5691;BME280;2870;42.680;23.364;2023-03-13T05:48:51;95654.66;;;1.32;70.58
5691;BME280;2870;42.680;23.364;2023-03-13T05:51:18;95658.69;;;1.31;70.23
5691;BME280;2870;42.680;23.364;2023-03-13T05:53:45;95663.25;;;1.60;70.07
5691;BME280;2870;42.680;23.364;2023-03-13T05:56:12;95663.78;;;1.64;70.37
5691;BME280;2870;42.680;23.364;2023-03-13T05:58:38;95663.44;;;1.30;71.21
5691;BME280;2870;42.680;23.364;2023-03-13T06:01:06;95672.50;;;1.57;71.70
5691;BME280;2870;42.680;23.364;2023-03-13T06:03:33;95673.69;;;1.71;69.04
5691;BME280;2870;42.680;23.364;2023-03-13T06:06:01;95671.59;;;1.66;68.62
5691;BME280;2870;42.680;23.364;2023-03-13T06:08:28;95682.56;;;1.80;69.16
5691;BME280;2870;42.680;23.364;2023-03-13T06:10:58;95676.44;;;1.71;68.72
5691;BME280;2870;42.680;23.364;2023-03-13T06:13:25;95674.03;;;1.58;68.51
5691;BME280;2870;42.680;23.364;2023-03-13T06:15:52;95681.03;;;1.79;68.79
5691;BME280;2870;42.680;23.364;2023-03-13T06:18:19;95678.44;;;1.70;67.60
5691;BME280;2870;42.680;23.364;2023-03-13T06:20:45;95670.88;;;1.97;67.67
5691;BME280;2870;42.680;23.364;2023-03-13T06:23:15;95683.28;;;2.33;66.89
5691;BME280;2870;42.680;23.364;2023-03-13T06:25:46;95685.59;;;2.83;64.98
5691;BME280;2870;42.680;23.364;2023-03-13T06:28:13;95683.13;;;2.85;65.43
5691;BME280;2870;42.680;23.364;2023-03-13T06:30:40;95684.59;;;2.80;64.76
5691;BME280;2870;42.680;23.364;2023-03-13T06:33:06;95686.66;;;2.85;66.17
5691;BME280;2870;42.680;23.364;2023-03-13T06:35:33;95681.53;;;2.73;66.20
5691;BME280;2870;42.680;23.364;2023-03-13T06:38:00;95673.94;;;2.68;66.62
5691;BME280;2870;42.680;23.364;2023-03-13T06:40:29;95663.06;;;2.58;65.32
5691;BME280;2870;42.680;23.364;2023-03-13T06:42:55;95668.47;;;2.79;67.28
5691;BME280;2870;42.680;23.364;2023-03-13T06:45:22;95667.41;;;2.71;68.60
5691;BME280;2870;42.680;23.364;2023-03-13T06:47:49;95664.88;;;2.30;69.15
5691;BME280;2870;42.680;23.364;2023-03-13T06:50:16;95661.91;;;2.76;69.21
5691;BME280;2870;42.680;23.364;2023-03-13T06:52:45;95672.41;;;2.66;66.81
5691;BME280;2870;42.680;23.364;2023-03-13T06:55:12;95682.66;;;2.92;66.31
5691;BME280;2870;42.680;23.364;2023-03-13T06:57:40;95675.34;;;3.54;63.83
5691;BME280;2870;42.680;23.364;2023-03-13T07:00:09;95667.81;;;3.60;63.81
5691;BME280;2870;42.680;23.364;2023-03-13T07:02:36;95666.88;;;4.31;62.95
5691;BME280;2870;42.680;23.364;2023-03-13T07:05:04;95665.03;;;5.00;60.95
5691;BME280;2870;42.680;23.364;2023-03-13T07:07:32;95653.75;;;5.40;57.18
5691;BME280;2870;42.680;23.364;2023-03-13T07:09:59;95665.88;;;5.42;57.70
5691;BME280;2870;42.680;23.364;2023-03-13T07:12:26;95671.09;;;5.63;57.19
5691;BME280;2870;42.680;23.364;2023-03-13T07:14:54;95677.13;;;6.79;53.13
5691;BME280;2870;42.680;23.364;2023-03-13T07:17:21;95670.34;;;6.99;51.29
5691;BME280;2870;42.680;23.364;2023-03-13T07:19:48;95677.16;;;7.04;52.47
5691;BME280;2870;42.680;23.364;2023-03-13T07:22:15;95660.72;;;7.43;51.91
5691;BME280;2870;42.680;23.364;2023-03-13T07:24:41;95664.13;;;8.12;48.58
5691;BME280;2870;42.680;23.364;2023-03-13T07:27:08;95662.69;;;7.86;48.08
5691;BME280;2870;42.680;23.364;2023-03-13T07:29:35;95664.97;;;7.69;49.87
5691;BME280;2870;42.680;23.364;2023-03-13T07:32:04;95663.47;;;8.06;47.88
5691;BME280;2870;42.680;23.364;2023-03-13T07:34:31;95665.03;;;7.82;48.74
5691;BME280;2870;42.680;23.364;2023-03-13T07:36:58;95664.53;;;8.67;47.56
5691;BME280;2870;42.680;23.364;2023-03-13T07:39:24;95664.81;;;9.62;44.89
5691;BME280;2870;42.680;23.364;2023-03-13T07:41:51;95661.06;;;9.59;44.64
5691;BME280;2870;42.680;23.364;2023-03-13T07:44:18;95677.22;;;9.26;43.40
5691;BME280;2870;42.680;23.364;2023-03-13T07:46:45;95671.03;;;8.75;45.67
5691;BME280;2870;42.680;23.364;2023-03-13T07:49:14;95670.06;;;9.78;43.66
5691;BME280;2870;42.680;23.364;2023-03-13T07:51:41;95677.28;;;9.87;43.90
5691;BME280;2870;42.680;23.364;2023-03-13T07:54:07;95676.44;;;9.79;44.34
5691;BME280;2870;42.680;23.364;2023-03-13T07:56:34;95669.69;;;9.21;44.04
5691;BME280;2870;42.680;23.364;2023-03-13T07:59:01;95663.41;;;10.50;41.75
5691;BME280;2870;42.680;23.364;2023-03-13T08:01:27;95654.78;;;10.48;42.57
5691;BME280;2870;42.680;23.364;2023-03-13T08:03:54;95653.22;;;10.39;42.63
5691;BME280;2870;42.680;23.364;2023-03-13T08:06:25;95656.69;;;9.85;43.63
5691;BME280;2870;42.680;23.364;2023-03-13T08:08:55;95645.41;;;10.45;41.87
5691;BME280;2870;42.680;23.364;2023-03-13T08:11:24;95650.13;;;11.21;40.10
5691;BME280;2870;42.680;23.364;2023-03-13T08:13:52;95640.28;;;10.57;41.15
5691;BME280;2870;42.680;23.364;2023-03-13T08:16:21;95644.50;;;9.95;42.30
5691;BME280;2870;42.680;23.364;2023-03-13T08:18:51;95653.03;;;11.36;41.00
5691;BME280;2870;42.680;23.364;2023-03-13T08:21:20;95639.94;;;9.71;41.69
5691;BME280;2870;42.680;23.364;2023-03-13T08:23:51;95647.47;;;9.63;44.68
5691;BME280;2870;42.680;23.364;2023-03-13T08:26:21;95647.00;;;10.33;42.71
5691;BME280;2870;42.680;23.364;2023-03-13T08:28:52;95645.75;;;10.07;42.73
5691;BME280;2870;42.680;23.364;2023-03-13T08:31:22;95652.88;;;9.35;42.92
5691;BME280;2870;42.680;23.364;2023-03-13T08:33:49;95657.94;;;8.96;44.08
5691;BME280;2870;42.680;23.364;2023-03-13T08:36:18;95656.34;;;9.54;44.87
5691;BME280;2870;42.680;23.364;2023-03-13T08:38:49;95660.13;;;11.01;41.63
5691;BME280;2870;42.680;23.364;2023-03-13T08:41:17;95670.63;;;11.08;41.93
5691;BME280;2870;42.680;23.364;2023-03-13T08:43:45;95663.25;;;11.54;40.08
5691;BME280;2870;42.680;23.364;2023-03-13T08:46:13;95665.06;;;11.44;39.89
5691;BME280;2870;42.680;23.364;2023-03-13T08:48:40;95661.19;;;11.55;38.99
5691;BME280;2870;42.680;23.364;2023-03-13T08:51:08;95659.56;;;10.81;40.81
5691;BME280;2870;42.680;23.364;2023-03-13T08:53:37;95656.44;;;11.13;40.83
5691;BME280;2870;42.680;23.364;2023-03-13T08:56:06;95647.75;;;11.04;40.47
5691;BME280;2870;42.680;23.364;2023-03-13T08:58:33;95646.22;;;9.98;40.87
5691;BME280;2870;42.680;23.364;2023-03-13T09:01:01;95644.97;;;9.73;41.68
5691;BME280;2870;42.680;23.364;2023-03-13T09:03:31;95640.72;;;10.61;41.43
5691;BME280;2870;42.680;23.364;2023-03-13T09:05:59;95645.63;;;11.90;39.87
5691;BME280;2870;42.680;23.364;2023-03-13T09:08:28;95650.91;;;11.86;37.48
5691;BME280;2870;42.680;23.364;2023-03-13T09:10:56;95640.75;;;11.18;38.91
5691;BME280;2870;42.680;23.364;2023-03-13T09:13:27;95646.31;;;11.39;39.43
5691;BME280;2870;42.680;23.364;2023-03-13T09:15:55;95644.16;;;11.53;39.78
5691;BME280;2870;42.680;23.364;2023-03-13T09:18:22;95642.16;;;11.68;39.74
5691;BME280;2870;42.680;23.364;2023-03-13T09:20:50;95629.25;;;10.80;40.55
5691;BME280;2870;42.680;23.364;2023-03-13T09:23:17;95629.34;;;11.88;40.37
5691;BME280;2870;42.680;23.364;2023-03-13T09:25:44;95628.56;;;12.93;36.42
5691;BME280;2870;42.680;23.364;2023-03-13T09:28:11;95634.75;;;12.68;36.82
5691;BME280;2870;42.680;23.364;2023-03-13T09:30:39;95634.78;;;12.99;37.23
5691;BME280;2870;42.680;23.364;2023-03-13T09:33:06;95643.03;;;12.74;37.24
5691;BME280;2870;42.680;23.364;2023-03-13T09:35:32;95634.94;;;12.55;37.04
5691;BME280;2870;42.680;23.364;2023-03-13T09:37:59;95637.41;;;13.28;35.93
5691;BME280;2870;42.680;23.364;2023-03-13T09:40:27;95645.44;;;12.93;36.83
5691;BME280;2870;42.680;23.364;2023-03-13T09:42:56;95640.19;;;12.43;38.83
5691;BME280;2870;42.680;23.364;2023-03-13T09:45:29;95629.31;;;12.55;38.24
5691;BME280;2870;42.680;23.364;2023-03-13T09:48:01;95631.13;;;12.30;38.40
5691;BME280;2870;42.680;23.364;2023-03-13T09:50:33;95622.28;;;11.66;39.00
5691;BME280;2870;42.680;23.364;2023-03-13T09:53:05;95628.34;;;12.37;39.94
5691;BME280;2870;42.680;23.364;2023-03-13T09:55:40;95618.06;;;12.63;37.87
5691;BME280;2870;42.680;23.364;2023-03-13T09:58:12;95624.59;;;13.42;36.63
5691;BME280;2870;42.680;23.364;2023-03-13T10:00:43;95615.03;;;13.30;36.87
5691;BME280;2870;42.680;23.364;2023-03-13T10:03:17;95613.84;;;13.48;36.06
5691;BME280;2870;42.680;23.364;2023-03-13T10:05:48;95618.41;;;13.91;35.41
5691;BME280;2870;42.680;23.364;2023-03-13T10:08:19;95613.00;;;13.86;35.81
5691;BME280;2870;42.680;23.364;2023-03-13T10:10:52;95612.50;;;14.04;36.01
5691;BME280;2870;42.680;23.364;2023-03-13T10:13:24;95606.41;;;12.97;35.39
5691;BME280;2870;42.680;23.364;2023-03-13T10:15:55;95602.03;;;13.42;35.04
5691;BME280;2870;42.680;23.364;2023-03-13T10:18:25;95589.41;;;13.58;37.78
5691;BME280;2870;42.680;23.364;2023-03-13T10:20:53;95598.13;;;14.58;34.38
5691;BME280;2870;42.680;23.364;2023-03-13T10:23:26;95582.03;;;13.70;35.10
5691;BME280;2870;42.680;23.364;2023-03-13T10:25:58;95579.41;;;12.79;36.72
5691;BME280;2870;42.680;23.364;2023-03-13T10:28:25;95576.69;;;13.90;37.21
5691;BME280;2870;42.680;23.364;2023-03-13T10:30:56;95573.56;;;14.11;36.59
5691;BME280;2870;42.680;23.364;2023-03-13T10:33:28;95572.25;;;12.47;38.32
5691;BME280;2870;42.680;23.364;2023-03-13T10:36:07;95564.38;;;12.68;37.09
5691;BME280;2870;42.680;23.364;2023-03-13T10:38:45;95562.75;;;13.92;36.63
5691;BME280;2870;42.680;23.364;2023-03-13T10:41:34;95573.28;;;14.81;33.48
5691;BME280;2870;42.680;23.364;2023-03-13T10:44:04;95551.63;;;12.67;35.94
5691;BME280;2870;42.680;23.364;2023-03-13T10:46:33;95550.59;;;13.82;35.29
5691;BME280;2870;42.680;23.364;2023-03-13T10:49:03;95548.91;;;14.11;34.07
5691;BME280;2870;42.680;23.364;2023-03-13T10:51:35;95554.41;;;13.69;34.49
5691;BME280;2870;42.680;23.364;2023-03-13T10:54:13;95548.34;;;13.32;34.99
5691;BME280;2870;42.680;23.364;2023-03-13T10:56:40;95541.81;;;13.07;35.93
5691;BME280;2870;42.680;23.364;2023-03-13T10:59:19;95530.22;;;12.95;37.03
5691;BME280;2870;42.680;23.364;2023-03-13T11:01:47;95528.94;;;13.44;35.89
5691;BME280;2870;42.680;23.364;2023-03-13T11:04:29;95526.06;;;12.96;36.02
5691;BME280;2870;42.680;23.364;2023-03-13T11:07:02;95517.38;;;11.64;37.76
5691;BME280;2870;42.680;23.364;2023-03-13T11:09:30;95511.13;;;12.40;38.29
5691;BME280;2870;42.680;23.364;2023-03-13T11:12:02;95512.03;;;12.73;35.91
5691;BME280;2870;42.680;23.364;2023-03-13T11:14:29;95509.22;;;12.19;39.11
5691;BME280;2870;42.680;23.364;2023-03-13T11:17:00;95503.22;;;12.00;37.08
5691;BME280;2870;42.680;23.364;2023-03-13T11:19:35;95503.13;;;11.62;38.36
5691;BME280;2870;42.680;23.364;2023-03-13T11:22:29;95498.56;;;12.41;37.45
5691;BME280;2870;42.680;23.364;2023-03-13T11:25:14;95494.22;;;12.63;37.39
5691;BME280;2870;42.680;23.364;2023-03-13T11:27:49;95497.44;;;12.59;36.91
5691;BME280;2870;42.680;23.364;2023-03-13T11:30:30;95485.25;;;12.18;40.04
5691;BME280;2870;42.680;23.364;2023-03-13T11:33:04;95486.16;;;11.83;38.89
5691;BME280;2870;42.680;23.364;2023-03-13T11:35:41;95479.59;;;12.57;40.03
5691;BME280;2870;42.680;23.364;2023-03-13T11:38:17;95484.06;;;12.83;37.57
5691;BME280;2870;42.680;23.364;2023-03-13T11:40:50;95479.22;;;12.53;37.05
5691;BME280;2870;42.680;23.364;2023-03-13T11:43:38;95466.88;;;12.17;38.66
5691;BME280;2870;42.680;23.364;2023-03-13T11:46:31;95457.44;;;12.68;38.00
5691;BME280;2870;42.680;23.364;2023-03-13T11:49:27;95453.72;;;12.51;36.99
5691;BME280;2870;42.680;23.364;2023-03-13T11:52:09;95443.75;;;11.58;39.39
5691;BME280;2870;42.680;23.364;2023-03-13T11:54:51;95440.06;;;12.32;39.08
5691;BME280;2870;42.680;23.364;2023-03-13T11:57:26;95439.56;;;12.89;36.90
5691;BME280;2870;42.680;23.364;2023-03-13T12:00:11;95436.75;;;12.89;35.93
5691;BME280;2870;42.680;23.364;2023-03-13T12:02:43;95433.00;;;11.33;39.00
5691;BME280;2870;42.680;23.364;2023-03-13T12:05:17;95430.53;;;11.22;39.67
5691;BME280;2870;42.680;23.364;2023-03-13T12:07:49;95423.34;;;11.73;39.00
5691;BME280;2870;42.680;23.364;2023-03-13T12:10:20;95432.00;;;12.20;38.02
5691;BME280;2870;42.680;23.364;2023-03-13T12:12:51;95421.22;;;11.35;39.10
5691;BME280;2870;42.680;23.364;2023-03-13T12:15:25;95403.81;;;11.29;39.35
5691;BME280;2870;42.680;23.364;2023-03-13T12:17:57;95405.72;;;11.57;39.19
5691;BME280;2870;42.680;23.364;2023-03-13T12:20:28;95403.06;;;11.36;40.08
5691;BME280;2870;42.680;23.364;2023-03-13T12:23:13;95403.16;;;11.97;39.75
5691;BME280;2870;42.680;23.364;2023-03-13T12:25:46;95406.88;;;12.07;37.41
5691;BME280;2870;42.680;23.364;2023-03-13T12:28:22;95403.16;;;11.97;40.46
5691;BME280;2870;42.680;23.364;2023-03-13T12:30:58;95404.63;;;12.06;38.38
5691;BME280;2870;42.680;23.364;2023-03-13T12:33:31;95388.47;;;12.44;37.94
5691;BME280;2870;42.680;23.364;2023-03-13T12:36:04;95384.19;;;12.13;38.39
5691;BME280;2870;42.680;23.364;2023-03-13T12:38:38;95401.41;;;12.40;37.61
5691;BME280;2870;42.680;23.364;2023-03-13T12:41:17;95391.72;;;11.95;37.37
5691;BME280;2870;42.680;23.364;2023-03-13T12:43:47;95377.25;;;11.53;38.38
5691;BME280;2870;42.680;23.364;2023-03-13T12:46:36;95384.75;;;11.96;38.18
5691;BME280;2870;42.680;23.364;2023-03-13T12:52:11;95391.63;;;12.56;38.61
5691;BME280;2870;42.680;23.364;2023-03-13T12:54:55;95390.06;;;12.70;37.39
5691;BME280;2870;42.680;23.364;2023-03-13T12:57:48;95387.31;;;12.47;37.87
5691;BME280;2870;42.680;23.364;2023-03-13T13:00:23;95392.81;;;12.93;37.55
5691;BME280;2870;42.680;23.364;2023-03-13T13:03:01;95398.72;;;12.65;37.28
5691;BME280;2870;42.680;23.364;2023-03-13T13:05:35;95392.16;;;12.62;37.28
5691;BME280;2870;42.680;23.364;2023-03-13T13:08:02;95390.53;;;12.92;36.22
5691;BME280;2870;42.680;23.364;2023-03-13T13:10:30;95396.28;;;13.09;37.57
5691;BME280;2870;42.680;23.364;2023-03-13T13:13:17;95391.63;;;13.04;37.12
5691;BME280;2870;42.680;23.364;2023-03-13T13:15:45;95391.16;;;12.83;36.91
5691;BME280;2870;42.680;23.364;2023-03-13T13:18:15;95395.09;;;12.80;36.80
5691;BME280;2870;42.680;23.364;2023-03-13T13:23:47;95380.34;;;12.56;36.52
5691;BME280;2870;42.680;23.364;2023-03-13T13:26:49;95377.63;;;12.26;37.09
5691;BME280;2870;42.680;23.364;2023-03-13T13:32:34;95372.19;;;12.28;38.36
5691;BME280;2870;42.680;23.364;2023-03-13T13:35:03;95359.53;;;12.59;37.44
5691;BME280;2870;42.680;23.364;2023-03-13T13:37:32;95370.03;;;13.07;36.24
5691;BME280;2870;42.680;23.364;2023-03-13T13:40:17;95374.31;;;13.48;35.84
5691;BME280;2870;42.680;23.364;2023-03-13T13:42:49;95366.16;;;13.35;35.20
5691;BME280;2870;42.680;23.364;2023-03-13T13:45:21;95366.16;;;13.27;35.25